createdAt,value
2018-07-25T00:02:50.920Z,19.5
2018-07-25T00:07:51.085Z,19.4
2018-07-25T00:12:51.120Z,19.2
2018-07-25T00:17:51.025Z,19.4
2018-07-25T00:22:51.065Z,19.3
2018-07-25T00:27:50.939Z,19.4
2018-07-25T00:32:51.144Z,19.3
2018-07-25T00:38:02.724Z,19.2
2018-07-25T00:43:02.398Z,19.2
2018-07-25T00:48:02.601Z,19.3
2018-07-25T00:53:02.647Z,19.2
2018-07-25T00:58:02.571Z,18.9
2018-07-25T01:03:02.429Z,18.7
2018-07-25T01:08:02.450Z,18.5
2018-07-25T01:13:04.524Z,18.6
2018-07-25T01:18:04.658Z,18.6
2018-07-25T01:23:14.522Z,18.4
2018-07-25T01:28:14.244Z,18.4
2018-07-25T01:33:14.238Z,18.3
2018-07-25T01:38:14.415Z,18
2018-07-25T01:43:14.454Z,18
2018-07-25T01:48:14.259Z,18
2018-07-25T01:53:14.262Z,17.9
2018-07-25T01:58:19.813Z,17.9
2018-07-25T02:03:19.710Z,17.8
2018-07-25T02:08:31.847Z,17.8
2018-07-25T02:13:31.761Z,17.7
2018-07-25T02:18:31.688Z,17.6
2018-07-25T02:23:31.719Z,17.6
2018-07-25T02:28:31.687Z,17.4
2018-07-25T02:33:31.575Z,17.4
2018-07-25T02:38:31.721Z,17.4
2018-07-25T02:43:31.643Z,17.3
2018-07-25T02:48:31.653Z,17.3
2018-07-25T02:53:44.268Z,17.2
2018-07-25T02:58:44.091Z,17.3
2018-07-25T03:03:43.991Z,17.3
2018-07-25T03:08:43.993Z,17.2
2018-07-25T03:13:44.144Z,17.2
2018-07-25T03:18:43.992Z,17.1
2018-07-25T03:23:44.109Z,17
2018-07-25T03:28:44.010Z,17
2018-07-25T03:33:44.186Z,17
2018-07-25T03:38:55.923Z,17.1
2018-07-25T03:43:55.828Z,17.2
2018-07-25T03:48:55.874Z,17.1
2018-07-25T03:53:55.619Z,17.2
2018-07-25T03:58:55.660Z,17.2
2018-07-25T04:03:55.647Z,17.1
2018-07-25T04:08:55.601Z,17.3
2018-07-25T04:13:57.689Z,17.1
2018-07-25T04:18:57.349Z,17.3
2018-07-25T04:24:09.212Z,17.6
2018-07-25T04:29:09.127Z,17.8
2018-07-25T04:34:09.185Z,17.8
2018-07-25T04:39:09.097Z,17.8
2018-07-25T04:44:09.145Z,17.8
2018-07-25T04:49:09.169Z,17.9
2018-07-25T04:54:08.946Z,18.1
2018-07-25T04:59:09.754Z,18.2
2018-07-25T05:04:09.507Z,18.4
2018-07-25T05:09:23.318Z,18.7
2018-07-25T05:14:23.061Z,19
2018-07-25T05:19:23.053Z,18.7
2018-07-25T05:24:23.230Z,18.9
2018-07-25T05:29:23.267Z,18.8
2018-07-25T05:34:23.196Z,19
2018-07-25T05:39:23.227Z,19.3
2018-07-25T05:44:23.073Z,19.8
2018-07-25T05:49:23.084Z,20.2
2018-07-25T05:54:35.465Z,20.4
2018-07-25T05:59:35.185Z,20.8
2018-07-25T06:04:35.388Z,21.2
2018-07-25T06:09:35.423Z,21.5
2018-07-25T06:14:35.317Z,21.8
2018-07-25T06:19:35.201Z,22.1
2018-07-25T06:24:35.208Z,22.4
2018-07-25T06:29:38.735Z,22.6
2018-07-25T06:34:38.710Z,22.9
2018-07-25T06:39:50.992Z,23.1
2018-07-25T06:44:50.701Z,23.4
2018-07-25T06:49:50.847Z,23.7
2018-07-25T06:54:50.881Z,24.1
2018-07-25T06:59:50.848Z,24.5
2018-07-25T07:04:50.717Z,24.6
2018-07-25T07:09:50.728Z,24.6
2018-07-25T07:14:54.021Z,24.5
2018-07-25T07:19:53.893Z,24.6
2018-07-25T07:25:06.416Z,24.4
2018-07-25T07:30:06.380Z,24.5
2018-07-25T07:35:06.208Z,24.7
2018-07-25T07:40:06.341Z,25.1
2018-07-25T07:45:06.155Z,25.7
2018-07-25T07:50:10.133Z,25.5
2018-07-25T07:55:09.998Z,25.8
2018-07-25T08:00:10.087Z,26.3
2018-07-25T08:05:10.003Z,26.4
2018-07-25T08:10:10.025Z,26.9
2018-07-25T08:15:09.858Z,27.3
2018-07-25T08:20:09.872Z,27.5
2018-07-25T08:25:11.066Z,27.9
2018-07-25T08:30:10.932Z,27.9
2018-07-25T08:35:25.999Z,28
2018-07-25T08:40:25.900Z,28
2018-07-25T08:45:25.951Z,28.3
2018-07-25T08:50:25.874Z,28.6
2018-07-25T08:55:25.898Z,28.2
2018-07-25T09:00:25.764Z,28.5
2018-07-25T09:05:25.860Z,28.1
2018-07-25T09:10:28.368Z,28.6
2018-07-25T09:15:28.090Z,29.1
2018-07-25T09:20:40.416Z,29.7
2018-07-25T09:25:40.078Z,28.7
2018-07-25T09:30:40.174Z,28.8
2018-07-25T09:35:40.010Z,28.8
2018-07-25T09:40:40.025Z,29.5
2018-07-25T09:45:40.032Z,29.1
2018-07-25T09:50:40.152Z,29.7
2018-07-25T09:55:40.055Z,30.2
2018-07-25T10:00:40.035Z,29.6
2018-07-25T10:05:51.213Z,29.8
2018-07-25T10:10:51.204Z,29
2018-07-25T10:15:50.926Z,28.9
2018-07-25T10:20:51.107Z,29
2018-07-25T10:25:50.954Z,29.6
2018-07-25T10:30:50.956Z,29.7
2018-07-25T10:35:51.183Z,30.3
2018-07-25T10:40:50.970Z,30.4
2018-07-25T10:45:50.973Z,30.8
2018-07-25T10:51:02.776Z,31
2018-07-25T10:56:02.764Z,31.1
2018-07-25T11:01:02.706Z,31.2
2018-07-25T11:06:02.668Z,31.3
2018-07-25T11:11:02.498Z,31.5
2018-07-25T11:16:02.495Z,31.5
2018-07-25T11:21:02.508Z,31.2
2018-07-25T11:26:03.066Z,31
2018-07-25T11:31:02.798Z,31.4
2018-07-25T11:36:16.504Z,31.5
2018-07-25T11:41:16.227Z,31.2
2018-07-25T11:46:16.234Z,31.3
2018-07-25T11:51:16.235Z,31.5
2018-07-25T11:56:16.392Z,31.2
2018-07-25T12:01:16.292Z,31.5
2018-07-25T12:06:16.258Z,31.3
2018-07-25T12:11:16.825Z,31.9
2018-07-25T12:16:16.496Z,31.9
2018-07-25T12:21:29.021Z,32.1
2018-07-25T12:26:29.014Z,31.6
2018-07-25T12:31:28.763Z,31.7
2018-07-25T12:36:28.942Z,31.3
2018-07-25T12:41:28.753Z,32
2018-07-25T12:46:28.737Z,31.9
2018-07-25T12:51:28.753Z,32.2
2018-07-25T12:56:29.810Z,32.2
2018-07-25T13:01:29.531Z,31.7
2018-07-25T13:06:40.599Z,31.7
2018-07-25T13:11:40.458Z,31.4
2018-07-25T13:16:40.309Z,31.2
2018-07-25T13:21:40.308Z,30.7
2018-07-25T13:26:40.452Z,30.7
2018-07-25T13:31:40.332Z,30.8
2018-07-25T13:36:40.567Z,30.8
2018-07-25T13:41:40.341Z,30.9
2018-07-25T13:46:40.447Z,30.8
2018-07-25T13:51:52.137Z,31.4
2018-07-25T13:56:51.752Z,31.7
2018-07-25T14:01:51.926Z,32
2018-07-25T14:06:52.018Z,32.2
2018-07-25T14:11:52.087Z,31.4
2018-07-25T14:16:51.813Z,31.7
2018-07-25T14:21:51.814Z,31.2
2018-07-25T14:26:53.091Z,30.9
2018-07-25T14:31:52.700Z,30.7
2018-07-25T14:37:07.204Z,30.8
2018-07-25T14:42:06.935Z,31.1
2018-07-25T14:47:07.005Z,30.8
2018-07-25T14:52:07.165Z,31.1
2018-07-25T14:57:07.085Z,31.7
2018-07-25T15:02:06.968Z,31.9
2018-07-25T15:07:06.947Z,31.9
2018-07-25T15:12:08.155Z,30.9
2018-07-25T15:17:07.888Z,30.9
2018-07-25T15:22:19.812Z,30.8
2018-07-25T15:27:19.676Z,30.5
2018-07-25T15:32:19.571Z,30.8
2018-07-25T15:37:19.583Z,31.1
2018-07-25T15:42:19.564Z,31
2018-07-25T15:47:19.566Z,30.9
2018-07-25T15:52:19.588Z,31.2
2018-07-25T15:57:20.097Z,31
2018-07-25T16:02:19.583Z,31.1
2018-07-25T16:07:31.608Z,30.9
2018-07-25T16:12:31.268Z,30.7
2018-07-25T16:17:31.337Z,30.4
2018-07-25T16:22:31.249Z,30.1
2018-07-25T16:27:31.538Z,29.7
2018-07-25T16:32:31.948Z,29.5
2018-07-25T16:37:31.487Z,28.9
2018-07-25T16:42:35.093Z,27.9
2018-07-25T16:47:34.836Z,27
2018-07-25T16:52:47.029Z,26.2
2018-07-25T16:57:46.750Z,25.6
2018-07-25T17:02:46.777Z,25.2
2018-07-25T17:07:46.782Z,24.7
2018-07-25T17:12:46.851Z,24.8
2018-07-25T17:17:46.818Z,24.8
2018-07-25T17:22:46.843Z,24.7
2018-07-25T17:27:47.532Z,25
2018-07-25T17:32:47.205Z,25.3
2018-07-25T17:37:59.834Z,25.6
2018-07-25T17:42:59.537Z,25.8
2018-07-25T17:47:59.588Z,25.7
2018-07-25T17:52:59.569Z,25.8
2018-07-25T17:57:59.738Z,25.7
2018-07-25T18:02:59.565Z,25.9
2018-07-25T18:07:59.545Z,25.6
2018-07-25T18:12:59.563Z,25.2
2018-07-25T18:17:59.571Z,25
2018-07-25T18:23:11.083Z,24.9
2018-07-25T18:28:10.804Z,24.6
2018-07-25T18:33:13.603Z,24.2
2018-07-25T18:38:10.869Z,24
2018-07-25T18:43:10.810Z,24.1
2018-07-25T18:48:10.847Z,23.9
2018-07-25T18:53:10.826Z,23.5
2018-07-25T18:58:12.268Z,23.4
2018-07-25T19:03:12.024Z,23.5
2018-07-25T19:08:26.678Z,23.4
2018-07-25T19:13:26.329Z,23.3
2018-07-25T19:18:26.374Z,22.8
2018-07-25T19:23:26.375Z,22.6
2018-07-25T19:28:26.379Z,22.7
2018-07-25T19:33:26.377Z,22.9
2018-07-25T19:38:26.436Z,23
2018-07-25T19:43:26.398Z,22.9
2018-07-25T19:48:26.416Z,21.5
2018-07-25T19:53:37.577Z,22
2018-07-25T19:58:37.271Z,21.8
2018-07-25T20:03:37.304Z,21.7
2018-07-25T20:08:37.260Z,20.9
2018-07-25T20:13:37.364Z,20.9
2018-07-25T20:18:37.314Z,21.1
2018-07-25T20:23:37.311Z,20.8
2018-07-25T20:28:37.322Z,20.8
2018-07-25T20:33:37.367Z,20.8
2018-07-25T20:38:49.256Z,20.3
2018-07-25T20:43:49.116Z,20.3
2018-07-25T20:48:48.996Z,20.3
2018-07-25T20:53:49.143Z,20.3
2018-07-25T20:58:49.083Z,20.3
2018-07-25T21:03:49.010Z,20.1
2018-07-25T21:08:48.986Z,20.3
2018-07-25T21:13:49.213Z,20.4
2018-07-25T21:18:49.133Z,20.4
2018-07-25T21:23:49.083Z,20.1
2018-07-25T21:28:49.208Z,19.9
2018-07-25T21:33:49.080Z,20
2018-07-25T21:38:49.086Z,19.8
2018-07-25T21:43:49.089Z,19.7
2018-07-25T21:49:00.452Z,19.6
2018-07-25T21:54:00.335Z,19.5
2018-07-25T21:59:00.169Z,19.6
2018-07-25T22:04:00.311Z,19.4
2018-07-25T22:09:00.241Z,19.5
2018-07-25T22:14:00.188Z,19.5
2018-07-25T22:19:00.208Z,19.5
2018-07-25T22:24:03.847Z,19.4
2018-07-25T22:29:03.563Z,19.4
2018-07-25T22:34:14.592Z,19.5
2018-07-25T22:39:14.307Z,19.3
2018-07-25T22:44:14.515Z,19.4
2018-07-25T22:49:14.311Z,19.4
2018-07-25T22:54:14.451Z,19.4
2018-07-25T22:59:14.448Z,19.3
2018-07-25T23:04:14.455Z,19.3
2018-07-25T23:09:14.456Z,19.4
2018-07-25T23:14:14.603Z,19.3
2018-07-25T23:19:25.491Z,19.1
2018-07-25T23:24:25.442Z,19.1
2018-07-25T23:29:25.299Z,19.1
2018-07-25T23:34:25.248Z,19
2018-07-25T23:39:25.279Z,18.9
2018-07-25T23:44:25.265Z,18.6
2018-07-25T23:49:25.596Z,18.8
2018-07-25T23:54:25.377Z,18.8
2018-07-25T23:59:25.823Z,18.8
